Aeroporto :
LOGIN :

Iscrizione | Disclaimer

   EN    FR    IT 

 










Sommario :    VFR   VFR Marginale   IFR   IFR Intensivo   IFR Molto Intensivo
Visibilità : 
Base nubi : 
>= 8 km
>= 3000ft
5 / 8 km
1000 / 3000 ft
1500m / 5 km
500 / 1000 ft
800 / 1500m
200 / 500 ft
< 800m
< 200 ft
Simboli :   Temporali  Nebbia  Neve Forte  Precipitazioni Forti  Vento > 20 kt
SIGMETs :   Varie  Temporali  Ghiacco  Turbolenza  Onda orograficha  Ceneri Vulcaniche






- Altitudine del aeroporto : 102 ft


LTBD - Ç?ld?r

ULTIMO METAR :
  • 291250Z 31013KT 280V340 9999 SCT040 BKN100 10/03 Q1012

METARs OBSOLETI :
  • 291150Z 29012G22KT 250V340 9999 SCT036 BKN100 09/03 Q1010
  • 291050Z 32011KT 240V360 9999 SCT040 BKN100 10/02 Q1010

TAF TAF LTBD
Valido dal 29 a 12 ore il 29 a 21 ore UTC


291040Z 2912/2921 29015G30KT 9999 SCT030 BKN100
TEMPO 2912/2915 -SHRA
BECMG 2917/2919 VRB02KT
BECMG 2919/2921 CAVOK



MetMap, La meteo Aeronautica in un colpo d'occhio ! - Copyright ORBIFLY Dicembre 2007 - Disclaimer

ORBIFLY MET'MAP TEAM :

Programmazione e sviluppo : Alexandra Zaïnal
Concezione : Baudouin d'Aumeries
Aiuto per la programmazione : Marc-Olivier Méhu
Supporto tecnico e logistico : Manuel Goepfert
Aiuto per la traduzione : Arnaldo La Scala

Contatto : metmap@orbifly.com




FONTI E CREDITI :

   NOAA